createdAt,value
2019-06-08T00:00:34.614Z,78.99
2019-06-08T00:01:34.656Z,79.19
2019-06-08T00:02:34.622Z,79.29
2019-06-08T00:03:44.001Z,78.99
2019-06-08T00:04:34.563Z,79.99
2019-06-08T00:05:34.548Z,79.80
2019-06-08T00:06:34.526Z,79.99
2019-06-08T00:07:34.503Z,79.99
2019-06-08T00:08:34.506Z,79.99
2019-06-08T00:09:34.516Z,79.69
2019-06-08T00:10:34.496Z,79.60
2019-06-08T00:11:34.470Z,79.80
2019-06-08T00:12:34.459Z,79.73
2019-06-08T00:13:34.548Z,79.93
2019-06-08T00:14:34.457Z,80.13
2019-06-08T00:15:34.452Z,80.24
2019-06-08T00:16:34.429Z,80.13
2019-06-08T00:17:38.895Z,80.04
2019-06-08T00:18:34.367Z,79.93
2019-06-08T00:19:34.410Z,80.24
2019-06-08T00:20:34.378Z,80.13
2019-06-08T00:21:34.363Z,80.24
2019-06-08T00:22:34.327Z,80.33
2019-06-08T00:23:34.332Z,80.54
2019-06-08T00:24:34.315Z,80.74
2019-06-08T00:25:34.353Z,81.24
2019-06-08T00:26:34.300Z,80.83
2019-06-08T00:27:34.330Z,80.63
2019-06-08T00:28:34.280Z,80.83
2019-06-08T00:29:34.260Z,80.83
2019-06-08T00:30:35.243Z,81.14
2019-06-08T00:31:34.253Z,81.24
2019-06-08T00:32:34.250Z,81.04
2019-06-08T00:33:34.238Z,81.27
2019-06-08T00:34:34.236Z,81.34
2019-06-08T00:35:34.220Z,81.34
2019-06-08T00:36:34.198Z,81.54
2019-06-08T00:37:34.193Z,81.44
2019-06-08T00:38:34.176Z,81.54
2019-06-08T00:39:34.165Z,81.34
2019-06-08T00:40:34.156Z,81.68
2019-06-08T00:41:34.171Z,81.34
2019-06-08T00:42:34.178Z,81.64
2019-06-08T00:43:34.119Z,81.64
2019-06-08T00:44:43.512Z,81.54
2019-06-08T00:45:34.075Z,81.04
2019-06-08T00:46:34.099Z,81.48
2019-06-08T00:47:46.949Z,81.44
2019-06-08T00:48:35.091Z,81.34
2019-06-08T00:49:34.083Z,81.34
2019-06-08T00:50:34.043Z,81.78
2019-06-08T00:51:34.011Z,81.84
2019-06-08T00:52:34.067Z,81.98
2019-06-08T00:53:34.007Z,82.04
2019-06-08T00:54:34.022Z,82.08
2019-06-08T00:55:33.988Z,81.94
2019-06-08T00:56:33.993Z,81.74
2019-06-08T00:57:33.991Z,81.44
2019-06-08T00:58:33.958Z,81.44
2019-06-08T00:59:33.930Z,81.34
2019-06-08T01:00:33.959Z,81.10
2019-06-08T01:01:44.020Z,81.44
2019-06-08T01:02:44.077Z,81.34
2019-06-08T01:03:42.584Z,80.83
2019-06-08T01:04:33.877Z,80.90
2019-06-08T01:05:34.482Z,80.90
2019-06-08T01:06:43.139Z,80.90
2019-06-08T01:07:43.138Z,80.90
2019-06-08T01:08:33.855Z,81.00
2019-06-08T01:09:33.862Z,80.80
2019-06-08T01:10:33.820Z,80.90
2019-06-08T01:11:33.792Z,80.60
2019-06-08T01:12:33.797Z,80.80
2019-06-08T01:13:33.822Z,81.00
2019-06-08T01:14:33.777Z,80.60
2019-06-08T01:15:34.461Z,80.60
2019-06-08T01:16:33.838Z,80.80
2019-06-08T01:17:33.751Z,80.40
2019-06-08T01:18:33.754Z,80.30
2019-06-08T01:19:33.766Z,80.40
2019-06-08T01:20:33.710Z,80.36
2019-06-08T01:21:33.726Z,80.26
2019-06-08T01:22:33.706Z,80.36
2019-06-08T01:23:33.685Z,80.36
2019-06-08T01:24:33.747Z,80.56
2019-06-08T01:25:33.669Z,80.26
2019-06-08T01:26:33.663Z,80.26
2019-06-08T01:27:33.641Z,80.56
2019-06-08T01:28:33.646Z,80.36
2019-06-08T01:29:33.678Z,80.36
2019-06-08T01:30:33.634Z,80.26
2019-06-08T01:31:33.642Z,80.36
2019-06-08T01:32:33.661Z,80.66
2019-06-08T01:33:33.572Z,80.16
2019-06-08T01:34:33.573Z,80.16
2019-06-08T01:35:33.606Z,80.46
2019-06-08T01:36:33.554Z,80.66
2019-06-08T01:37:33.535Z,80.26
2019-06-08T01:38:33.573Z,80.56
2019-06-08T01:39:33.508Z,80.46
2019-06-08T01:40:33.542Z,80.06
2019-06-08T01:41:33.546Z,80.06
2019-06-08T01:42:33.497Z,80.56
2019-06-08T01:43:33.474Z,80.26
2019-06-08T01:44:33.475Z,80.56
2019-06-08T01:45:33.506Z,80.36
2019-06-08T01:46:33.441Z,80.36
2019-06-08T01:47:33.453Z,80.46
2019-06-08T01:48:33.416Z,80.66
2019-06-08T01:49:33.426Z,80.36
2019-06-08T01:50:33.557Z,80.06
2019-06-08T01:51:33.428Z,80.06
2019-06-08T01:52:33.400Z,79.96
2019-06-08T01:53:33.358Z,78.75
2019-06-08T01:54:33.426Z,78.66
2019-06-08T01:55:33.363Z,77.99
2019-06-08T01:56:33.455Z,78.19
2019-06-08T01:57:33.795Z,76.89
2019-06-08T01:58:33.541Z,76.98
2019-06-08T01:59:34.741Z,77.42
2019-06-08T02:00:39.248Z,77.83
2019-06-08T02:01:34.301Z,77.92
2019-06-08T02:02:34.196Z,77.76
2019-06-08T02:03:34.781Z,78.36
2019-06-08T02:04:34.726Z,78.40
2019-06-08T02:05:34.450Z,78.70
2019-06-08T02:06:34.558Z,78.60
2019-06-08T02:07:34.295Z,77.83
2019-06-08T02:08:33.238Z,78.74
2019-06-08T02:09:33.193Z,78.64
2019-06-08T02:10:33.193Z,77.94
2019-06-08T02:11:33.187Z,77.83
2019-06-08T02:12:33.175Z,76.63
2019-06-08T02:13:33.208Z,77.03
2019-06-08T02:14:33.305Z,76.73
2019-06-08T02:15:33.867Z,76.56
2019-06-08T02:16:33.399Z,76.76
2019-06-08T02:17:33.502Z,77.40
2019-06-08T02:18:43.817Z,77.07
2019-06-08T02:19:34.801Z,77.50
2019-06-08T02:20:33.092Z,77.81
2019-06-08T02:21:33.068Z,77.50
2019-06-08T02:22:33.145Z,77.11
2019-06-08T02:23:33.170Z,77.70
2019-06-08T02:24:33.370Z,76.97
2019-06-08T02:25:33.562Z,77.50
2019-06-08T02:26:35.184Z,77.07
2019-06-08T02:27:33.569Z,76.80
2019-06-08T02:28:33.646Z,77.00
2019-06-08T02:29:33.717Z,77.40
2019-06-08T02:30:36.103Z,77.84
2019-06-08T02:31:34.797Z,78.05
2019-06-08T02:32:33.543Z,77.64
2019-06-08T02:33:34.691Z,78.41
2019-06-08T02:34:35.046Z,78.41
2019-06-08T02:35:35.074Z,78.85
2019-06-08T02:36:33.723Z,78.71
2019-06-08T02:37:33.165Z,78.65
2019-06-08T02:38:34.603Z,78.55
2019-06-08T02:39:32.942Z,78.85
2019-06-08T02:40:34.582Z,78.65
2019-06-08T02:41:33.181Z,78.85
2019-06-08T02:42:34.672Z,77.95
2019-06-08T02:43:33.375Z,78.55
2019-06-08T02:45:50.279Z,78.85
2019-06-08T02:47:00.291Z,78.75
2019-06-08T02:47:50.199Z,78.96
2019-06-08T02:49:03.939Z,78.99
2019-06-08T02:49:50.146Z,79.60
2019-06-08T02:50:59.167Z,79.80
2019-06-08T02:51:50.186Z,80.20
2019-06-08T02:52:50.137Z,79.39
2019-06-08T02:53:50.154Z,80.30
2019-06-08T02:54:50.146Z,80.30
2019-06-08T02:55:50.103Z,80.10
2019-06-08T02:56:50.088Z,80.44
2019-06-08T02:57:50.108Z,80.24
2019-06-08T02:58:50.104Z,80.00
2019-06-08T02:59:50.066Z,79.60
2019-06-08T03:00:50.060Z,80.30
2019-06-08T03:01:50.014Z,80.20
2019-06-08T03:02:50.031Z,80.04
2019-06-08T03:03:50.009Z,80.20
2019-06-08T03:04:50.034Z,79.90
2019-06-08T03:05:49.993Z,79.90
2019-06-08T03:06:50.037Z,80.30
2019-06-08T03:07:49.965Z,80.20
2019-06-08T03:08:50.005Z,80.30
2019-06-08T03:09:49.957Z,80.24
2019-06-08T03:10:49.951Z,80.40
2019-06-08T03:11:49.941Z,79.43
2019-06-08T03:12:49.934Z,80.24
2019-06-08T03:13:49.890Z,79.43
2019-06-08T03:14:49.949Z,79.53
2019-06-08T03:15:49.888Z,80.64
2019-06-08T03:16:49.904Z,80.04
2019-06-08T03:17:49.884Z,80.33
2019-06-08T03:18:49.881Z,80.13
2019-06-08T03:19:49.841Z,80.44
2019-06-08T03:20:49.825Z,79.53
2019-06-08T03:21:49.843Z,78.72
2019-06-08T03:22:49.810Z,77.82
2019-06-08T03:23:49.810Z,78.22
2019-06-08T03:24:49.847Z,78.12
2019-06-08T03:25:53.046Z,78.12
2019-06-08T03:26:49.838Z,78.22
2019-06-08T03:27:49.774Z,77.21
2019-06-08T03:28:49.761Z,77.11
2019-06-08T03:29:49.765Z,76.61
2019-06-08T03:30:54.451Z,76.81
2019-06-08T03:31:55.678Z,75.90
2019-06-08T03:32:56.430Z,75.80
2019-06-08T03:33:55.827Z,75.94
2019-06-08T03:34:55.716Z,76.84
2019-06-08T03:35:57.074Z,77.01
2019-06-08T03:36:56.128Z,76.40
2019-06-08T03:37:50.702Z,76.64
2019-06-08T03:38:49.636Z,75.90
2019-06-08T03:39:49.614Z,74.99
2019-06-08T03:40:49.625Z,74.73
2019-06-08T03:41:49.625Z,74.90
2019-06-08T03:42:50.975Z,75.23
2019-06-08T03:43:49.595Z,75.13
2019-06-08T03:44:49.585Z,76.34
2019-06-08T03:45:49.595Z,77.15
2019-06-08T03:46:49.589Z,77.55
2019-06-08T03:47:49.579Z,77.75
2019-06-08T03:48:49.560Z,78.56
2019-06-08T03:49:56.763Z,78.86
2019-06-08T03:50:50.520Z,80.27
2019-06-08T03:51:49.506Z,82.29
2019-06-08T03:52:49.478Z,83.10
2019-06-08T03:53:49.515Z,84.55
2019-06-08T03:54:49.477Z,83.44
2019-06-08T03:55:49.480Z,83.07
2019-06-08T03:56:49.446Z,82.07
2019-06-08T03:57:49.451Z,82.57
2019-06-08T03:58:49.464Z,81.87
2019-06-08T03:59:49.436Z,80.76
2019-06-08T04:00:49.406Z,81.67
2019-06-08T04:01:50.005Z,81.30
2019-06-08T04:04:07.124Z,81.20
2019-06-08T04:05:06.452Z,80.59
2019-06-08T04:06:06.422Z,78.37
2019-06-08T04:07:06.465Z,79.28
2019-06-08T04:08:06.412Z,79.28
2019-06-08T04:09:06.560Z,78.47
2019-06-08T04:10:06.392Z,78.67
2019-06-08T04:11:06.368Z,78.77
2019-06-08T04:12:06.364Z,77.36
2019-06-08T04:13:06.353Z,74.84
2019-06-08T04:14:06.347Z,73.62
2019-06-08T04:15:06.326Z,73.72
2019-06-08T04:16:06.346Z,73.62
2019-06-08T04:17:06.345Z,73.82
2019-06-08T04:18:06.301Z,74.02
2019-06-08T04:19:06.297Z,74.73
2019-06-08T04:20:11.236Z,75.84
2019-06-08T04:21:07.268Z,74.93
2019-06-08T04:22:06.257Z,74.90
2019-06-08T04:23:06.233Z,75.00
2019-06-08T04:24:06.298Z,76.75
2019-06-08T04:25:06.228Z,76.25
2019-06-08T04:26:06.218Z,74.93
2019-06-08T04:27:06.185Z,75.34
2019-06-08T04:28:06.235Z,75.81
2019-06-08T04:29:06.183Z,75.60
2019-06-08T04:30:06.196Z,75.60
2019-06-08T04:31:06.176Z,75.60
2019-06-08T04:32:06.184Z,74.09
2019-06-08T04:33:06.152Z,74.40
2019-06-08T04:34:06.149Z,74.49
2019-06-08T04:35:06.175Z,73.89
2019-06-08T04:36:06.098Z,73.18
2019-06-08T04:37:06.082Z,73.45
2019-06-08T04:38:06.093Z,72.88
2019-06-08T04:39:06.128Z,73.49
2019-06-08T04:40:06.042Z,74.46
2019-06-08T04:41:06.071Z,71.97
2019-06-08T04:42:06.071Z,73.05
2019-06-08T04:43:06.079Z,73.65
2019-06-08T04:44:06.036Z,73.25
2019-06-08T04:45:06.024Z,73.35
2019-06-08T04:46:05.991Z,72.44
2019-06-08T04:47:05.988Z,72.04
2019-06-08T04:48:09.496Z,73.35
2019-06-08T04:49:06.021Z,72.14
2019-06-08T04:50:21.466Z,71.70
2019-06-08T04:51:07.813Z,71.53
2019-06-08T04:52:05.966Z,71.33
2019-06-08T04:53:05.985Z,71.84
2019-06-08T04:54:05.917Z,71.23
2019-06-08T04:55:06.026Z,71.73
2019-06-08T04:56:09.207Z,71.40
2019-06-08T04:57:05.973Z,72.24
2019-06-08T04:58:05.891Z,72.00
2019-06-08T05:00:23.417Z,72.41
2019-06-08T05:01:23.341Z,71.91
2019-06-08T05:02:23.335Z,71.70
2019-06-08T05:03:23.296Z,71.84
2019-06-08T05:04:23.280Z,71.64
2019-06-08T05:05:24.081Z,71.23
2019-06-08T05:06:23.241Z,71.73
2019-06-08T05:07:23.221Z,71.23
2019-06-08T05:08:23.287Z,73.15
2019-06-08T05:09:32.170Z,72.54
2019-06-08T05:10:23.257Z,71.73
2019-06-08T05:11:23.165Z,71.44
2019-06-08T05:12:23.152Z,71.23
2019-06-08T05:13:23.254Z,70.62
2019-06-08T05:14:23.152Z,70.73
2019-06-08T05:15:23.197Z,70.76
2019-06-08T05:16:23.118Z,70.42
2019-06-08T05:17:23.162Z,70.62
2019-06-08T05:18:25.979Z,70.53
2019-06-08T05:19:23.081Z,68.54
2019-06-08T05:20:37.732Z,69.15
2019-06-08T05:21:24.089Z,68.81
2019-06-08T05:22:23.075Z,68.54
2019-06-08T05:23:23.025Z,68.44
2019-06-08T05:24:23.036Z,69.45
2019-06-08T05:25:23.036Z,68.54
2019-06-08T05:26:23.058Z,69.55
2019-06-08T05:27:23.022Z,68.24
2019-06-08T05:28:23.041Z,69.89
2019-06-08T05:29:23.041Z,68.54
2019-06-08T05:30:22.998Z,69.85
2019-06-08T05:31:22.965Z,69.65
2019-06-08T05:32:23.023Z,68.95
2019-06-08T05:33:22.977Z,68.95
2019-06-08T05:34:22.960Z,68.41
2019-06-08T05:35:22.947Z,68.41
2019-06-08T05:36:22.944Z,68.41
2019-06-08T05:37:22.995Z,68.37
2019-06-08T05:38:22.880Z,67.57
2019-06-08T05:39:22.914Z,66.86
2019-06-08T05:40:22.873Z,66.63
2019-06-08T05:41:24.198Z,66.42
2019-06-08T05:42:22.839Z,67.23
2019-06-08T05:43:22.883Z,67.20
2019-06-08T05:44:22.859Z,66.09
2019-06-08T05:45:22.803Z,65.62
2019-06-08T05:46:22.826Z,65.62
2019-06-08T05:47:22.811Z,65.82
2019-06-08T05:48:22.784Z,65.29
2019-06-08T05:49:22.764Z,65.39
2019-06-08T05:50:22.782Z,65.76
2019-06-08T05:51:22.758Z,65.36
2019-06-08T05:52:22.773Z,64.25
2019-06-08T05:53:22.752Z,64.05
2019-06-08T05:54:22.794Z,64.45
2019-06-08T05:55:22.751Z,63.14
2019-06-08T05:56:22.701Z,64.65
2019-06-08T05:57:22.717Z,63.14
2019-06-08T05:58:22.682Z,62.94
2019-06-08T05:59:22.670Z,62.44
2019-06-08T06:00:22.668Z,63.01
2019-06-08T06:01:23.671Z,62.81
2019-06-08T06:02:22.624Z,62.71
2019-06-08T06:03:22.627Z,62.41
2019-06-08T06:04:22.611Z,62.68
2019-06-08T06:05:22.586Z,62.38
2019-06-08T06:06:22.705Z,62.05
2019-06-08T06:07:22.637Z,62.38
2019-06-08T06:08:22.564Z,62.55
2019-06-08T06:09:22.585Z,60.94
2019-06-08T06:10:22.725Z,61.54
2019-06-08T06:11:22.600Z,60.31
2019-06-08T06:12:23.354Z,59.94
2019-06-08T06:13:23.357Z,59.23
2019-06-08T06:14:22.511Z,60.53
2019-06-08T06:15:22.491Z,61.31
2019-06-08T06:16:22.526Z,60.51
2019-06-08T06:17:22.539Z,58.97
2019-06-08T06:18:22.443Z,58.97
2019-06-08T06:19:22.447Z,58.17
2019-06-08T06:20:22.505Z,58.34
2019-06-08T06:21:22.423Z,58.44
2019-06-08T06:22:22.631Z,59.12
2019-06-08T06:23:22.405Z,57.71
2019-06-08T06:24:22.431Z,57.08
2019-06-08T06:25:22.457Z,56.48
2019-06-08T06:26:22.370Z,56.38
2019-06-08T06:27:22.429Z,56.78
2019-06-08T06:28:22.436Z,56.78
2019-06-08T06:29:22.376Z,55.68
2019-06-08T06:30:22.381Z,55.98
2019-06-08T06:31:22.342Z,55.75
2019-06-08T06:32:22.328Z,55.45
2019-06-08T06:33:22.334Z,55.98
2019-06-08T06:34:22.409Z,56.68
2019-06-08T06:35:22.296Z,56.91
2019-06-08T06:36:22.264Z,56.51
2019-06-08T06:37:22.361Z,56.93
2019-06-08T06:38:22.329Z,56.76
2019-06-08T06:39:22.334Z,57.06
2019-06-08T06:40:22.645Z,56.69
2019-06-08T06:41:22.420Z,57.79
2019-06-08T06:42:24.788Z,57.19
2019-06-08T06:43:22.545Z,56.46
2019-06-08T06:44:22.583Z,56.43
2019-06-08T06:45:22.395Z,55.63
2019-06-08T06:46:22.268Z,55.83
2019-06-08T06:47:22.259Z,55.00
2019-06-08T06:48:23.610Z,54.00
2019-06-08T06:49:22.214Z,53.57
2019-06-08T06:50:22.233Z,53.27
2019-06-08T06:51:26.225Z,53.57
2019-06-08T06:52:22.249Z,53.17
2019-06-08T06:53:22.708Z,53.97
2019-06-08T06:54:22.162Z,53.25
2019-06-08T06:55:25.231Z,52.55
2019-06-08T06:56:22.224Z,52.64
2019-06-08T06:57:22.217Z,51.92
2019-06-08T06:58:22.182Z,51.32
2019-06-08T06:59:22.198Z,51.39
2019-06-08T07:00:22.190Z,49.89
2019-06-08T07:01:22.098Z,49.46
2019-06-08T07:02:22.625Z,49.07
2019-06-08T07:03:22.623Z,49.76
2019-06-08T07:04:22.101Z,49.96
2019-06-08T07:05:22.113Z,49.66
2019-06-08T07:06:22.052Z,49.46
2019-06-08T07:07:22.113Z,50.07
2019-06-08T07:08:22.155Z,49.87
2019-06-08T07:09:22.010Z,49.37
2019-06-08T07:10:22.273Z,50.09
2019-06-08T07:11:21.909Z,49.89
2019-06-08T07:12:21.918Z,50.59
2019-06-08T07:13:22.118Z,51.39
2019-06-08T07:14:21.869Z,48.91
2019-06-08T07:15:21.897Z,49.81
2019-06-08T07:16:21.877Z,49.41
2019-06-08T07:17:21.830Z,49.23
2019-06-08T07:18:21.846Z,50.44
2019-06-08T07:19:21.812Z,50.46
2019-06-08T07:20:21.840Z,50.24
2019-06-08T07:21:21.880Z,50.84
2019-06-08T07:22:21.779Z,50.63
2019-06-08T07:23:21.759Z,49.93
2019-06-08T07:24:21.787Z,50.01
2019-06-08T07:25:21.743Z,49.21
2019-06-08T07:26:21.746Z,49.71
2019-06-08T07:27:21.727Z,48.71
2019-06-08T07:28:21.688Z,49.71
2019-06-08T07:29:21.688Z,48.69
2019-06-08T07:30:21.747Z,48.76
2019-06-08T07:31:21.689Z,48.44
2019-06-08T07:32:21.677Z,48.52
2019-06-08T07:33:21.670Z,47.81
2019-06-08T07:34:21.654Z,47.02
2019-06-08T07:35:21.632Z,47.42
2019-06-08T07:36:21.654Z,47.22
2019-06-08T07:37:21.601Z,48.52
2019-06-08T07:38:21.643Z,48.64
2019-06-08T07:39:21.605Z,48.11
2019-06-08T07:40:21.602Z,47.81
2019-06-08T07:41:21.587Z,48.36
2019-06-08T07:42:21.605Z,47.86
2019-06-08T07:43:21.613Z,48.49
2019-06-08T07:44:21.534Z,48.08
2019-06-08T07:45:21.520Z,47.91
2019-06-08T07:46:21.547Z,48.43
2019-06-08T07:47:21.737Z,48.23
2019-06-08T07:48:21.501Z,49.43
2019-06-08T07:49:21.516Z,50.24
2019-06-08T07:50:21.502Z,49.86
2019-06-08T07:51:21.518Z,49.66
2019-06-08T07:52:21.480Z,50.36
2019-06-08T07:53:21.476Z,51.39
2019-06-08T07:54:21.450Z,52.07
2019-06-08T07:55:21.430Z,50.48
2019-06-08T07:56:21.432Z,51.76
2019-06-08T07:57:21.413Z,50.09
2019-06-08T07:58:21.393Z,51.06
2019-06-08T07:59:21.390Z,51.06
2019-06-08T08:00:21.371Z,49.86
2019-06-08T08:01:35.256Z,50.36
2019-06-08T08:02:22.424Z,50.96
2019-06-08T08:03:21.394Z,50.76
2019-06-08T08:04:21.310Z,49.66
2019-06-08T08:05:21.367Z,50.38
2019-06-08T08:06:21.416Z,50.79
2019-06-08T08:07:21.287Z,51.89
2019-06-08T08:08:21.310Z,50.79
2019-06-08T08:09:21.318Z,50.46
2019-06-08T08:10:21.296Z,51.56
2019-06-08T08:11:21.315Z,50.06
2019-06-08T08:12:21.336Z,50.56
2019-06-08T08:13:21.221Z,50.74
2019-06-08T08:14:21.233Z,49.66
2019-06-08T08:15:21.191Z,50.74
2019-06-08T08:16:21.221Z,49.93
2019-06-08T08:17:21.203Z,50.56
2019-06-08T08:18:21.162Z,50.66
2019-06-08T08:19:21.206Z,51.06
2019-06-08T08:20:21.161Z,50.36
2019-06-08T08:21:25.509Z,50.48
2019-06-08T08:22:26.023Z,50.38
2019-06-08T08:23:22.200Z,50.99
2019-06-08T08:24:21.277Z,52.22
2019-06-08T08:25:21.130Z,52.22
2019-06-08T08:26:21.088Z,52.82
2019-06-08T08:27:21.459Z,52.24
2019-06-08T08:28:21.054Z,52.44
2019-06-08T08:29:21.088Z,52.55
2019-06-08T08:30:21.051Z,53.14
2019-06-08T08:31:21.023Z,53.34
2019-06-08T08:32:21.032Z,52.34
2019-06-08T08:33:21.096Z,52.44
2019-06-08T08:34:21.001Z,52.04
2019-06-08T08:35:20.991Z,51.64
2019-06-08T08:36:21.152Z,52.51
2019-06-08T08:37:20.969Z,51.72
2019-06-08T08:38:20.990Z,52.32
2019-06-08T08:39:20.971Z,51.92
2019-06-08T08:40:20.944Z,50.61
2019-06-08T08:41:20.982Z,50.81
2019-06-08T08:42:20.938Z,51.92
2019-06-08T08:43:23.011Z,52.32
2019-06-08T08:44:20.880Z,50.59
2019-06-08T08:45:20.891Z,51.39
2019-06-08T08:46:20.943Z,51.19
2019-06-08T08:47:21.126Z,50.89
2019-06-08T08:48:27.521Z,50.99
2019-06-08T08:49:21.869Z,50.59
2019-06-08T08:50:20.863Z,50.29
2019-06-08T08:51:20.801Z,50.48
2019-06-08T08:52:33.724Z,50.99
2019-06-08T08:53:21.816Z,49.98
2019-06-08T08:54:20.782Z,50.91
2019-06-08T08:55:20.781Z,51.92
2019-06-08T08:56:20.778Z,51.61
2019-06-08T08:57:20.785Z,51.92
2019-06-08T08:58:20.754Z,52.32
2019-06-08T08:59:20.747Z,52.12
2019-06-08T09:00:20.842Z,52.32
2019-06-08T09:01:20.896Z,51.81
2019-06-08T09:02:21.393Z,51.79
2019-06-08T09:03:28.710Z,50.89
2019-06-08T09:04:21.725Z,50.96
2019-06-08T09:05:20.683Z,49.86
2019-06-08T09:06:20.666Z,49.96
2019-06-08T09:07:20.760Z,50.63
2019-06-08T09:08:23.215Z,49.63
2019-06-08T09:09:21.649Z,49.74
2019-06-08T09:10:20.629Z,48.83
2019-06-08T09:11:20.634Z,48.43
2019-06-08T09:12:20.571Z,48.83
2019-06-08T09:13:20.816Z,49.31
2019-06-08T09:14:20.727Z,49.49
2019-06-08T09:15:20.726Z,47.88
2019-06-08T09:16:22.711Z,48.69
2019-06-08T09:17:21.060Z,46.68
2019-06-08T09:18:20.563Z,47.88
2019-06-08T09:19:20.997Z,47.88
2019-06-08T09:20:20.589Z,47.99
2019-06-08T09:21:20.551Z,46.70
2019-06-08T09:22:20.501Z,48.01
2019-06-08T09:23:21.920Z,46.73
2019-06-08T09:24:20.459Z,46.93
2019-06-08T09:25:20.436Z,46.62
2019-06-08T09:26:20.420Z,45.65
2019-06-08T09:27:20.602Z,46.85
2019-06-08T09:28:20.510Z,46.45
2019-06-08T09:29:20.380Z,46.95
2019-06-08T09:30:20.724Z,47.96
2019-06-08T09:31:20.410Z,48.33
2019-06-08T09:32:20.431Z,47.43
2019-06-08T09:33:20.356Z,47.93
2019-06-08T09:34:20.450Z,46.12
2019-06-08T09:35:21.348Z,46.83
2019-06-08T09:36:20.343Z,46.95
2019-06-08T09:37:20.384Z,47.05
2019-06-08T09:38:20.349Z,48.13
2019-06-08T09:39:20.314Z,47.23
2019-06-08T09:40:22.184Z,48.63
2019-06-08T09:41:21.214Z,46.62
2019-06-08T09:42:21.219Z,46.73
2019-06-08T09:43:20.319Z,48.16
2019-06-08T09:44:20.626Z,49.46
2019-06-08T09:45:20.347Z,48.33
2019-06-08T09:46:20.288Z,47.81
2019-06-08T09:47:22.296Z,46.61
2019-06-08T09:48:20.259Z,48.89
2019-06-08T09:49:20.169Z,46.98
2019-06-08T09:50:21.272Z,47.76
2019-06-08T09:51:20.148Z,46.66
2019-06-08T09:52:21.713Z,46.56
2019-06-08T09:53:28.519Z,46.06
2019-06-08T09:54:21.171Z,47.26
2019-06-08T09:55:20.221Z,47.44
2019-06-08T09:56:20.288Z,47.94
2019-06-08T09:57:20.106Z,46.64
2019-06-08T09:58:20.105Z,46.72
2019-06-08T09:59:20.110Z,43.74
2019-06-08T10:00:22.249Z,44.74
2019-06-08T10:01:21.113Z,45.74
2019-06-08T10:02:20.322Z,44.98
2019-06-08T10:03:20.046Z,44.68
2019-06-08T10:04:20.036Z,46.38
2019-06-08T10:05:20.070Z,45.00
2019-06-08T10:06:20.436Z,46.62
2019-06-08T10:07:20.153Z,45.42
2019-06-08T10:08:20.742Z,46.42
2019-06-08T10:09:20.033Z,46.12
2019-06-08T10:10:19.975Z,46.83
2019-06-08T10:11:19.952Z,46.12
2019-06-08T10:12:19.947Z,46.23
2019-06-08T10:13:19.975Z,46.42
2019-06-08T10:14:19.996Z,46.53
2019-06-08T10:15:19.937Z,47.93
2019-06-08T10:16:19.967Z,47.23
2019-06-08T10:17:21.071Z,48.23
2019-06-08T10:18:19.913Z,47.31
2019-06-08T10:19:19.909Z,47.99
2019-06-08T10:20:19.927Z,47.19
2019-06-08T10:21:21.126Z,46.68
2019-06-08T10:22:20.087Z,46.48
2019-06-08T10:23:30.718Z,46.78
2019-06-08T10:24:21.018Z,46.68
2019-06-08T10:25:20.802Z,47.19
2019-06-08T10:26:19.999Z,47.91
2019-06-08T10:27:19.824Z,48.49
2019-06-08T10:28:21.706Z,46.61
2019-06-08T10:29:19.911Z,46.70
2019-06-08T10:30:19.772Z,48.23
2019-06-08T10:31:33.169Z,48.43
2019-06-08T10:32:20.773Z,49.16
2019-06-08T10:33:20.189Z,49.43
2019-06-08T10:34:19.714Z,48.93
2019-06-08T10:35:21.011Z,49.54
2019-06-08T10:36:19.713Z,48.93
2019-06-08T10:37:19.731Z,47.83
2019-06-08T10:38:19.716Z,49.84
2019-06-08T10:39:19.649Z,47.61
2019-06-08T10:40:19.681Z,46.70
2019-06-08T10:41:21.836Z,48.31
2019-06-08T10:42:19.696Z,46.28
2019-06-08T10:43:20.013Z,45.76
2019-06-08T10:44:19.721Z,47.06
2019-06-08T10:45:19.676Z,46.64
2019-06-08T10:46:20.970Z,47.54
2019-06-08T10:47:19.613Z,45.74
2019-06-08T10:48:19.578Z,46.22
2019-06-08T10:49:19.854Z,48.52
2019-06-08T10:50:19.629Z,47.99
2019-06-08T10:51:19.577Z,45.31
2019-06-08T10:52:20.349Z,46.59
2019-06-08T10:53:19.516Z,45.29
2019-06-08T10:54:19.585Z,44.57
2019-06-08T10:55:19.560Z,44.45
2019-06-08T10:56:19.519Z,44.15
2019-06-08T10:57:19.499Z,42.76
2019-06-08T10:58:19.620Z,43.57
2019-06-08T10:59:19.462Z,44.07
2019-06-08T11:00:23.569Z,44.27
2019-06-08T11:01:19.518Z,44.37
2019-06-08T11:02:20.236Z,44.57
2019-06-08T11:03:19.449Z,44.67
2019-06-08T11:04:19.835Z,44.97
2019-06-08T11:05:19.470Z,43.87
2019-06-08T11:06:19.376Z,44.55
2019-06-08T11:07:19.396Z,45.65
2019-06-08T11:08:19.369Z,45.75
2019-06-08T11:09:20.345Z,43.43
2019-06-08T11:10:20.204Z,38.84
2019-06-08T11:11:20.182Z,38.16
2019-06-08T11:12:19.460Z,36.98
2019-06-08T11:13:19.288Z,36.68
2019-06-08T11:14:22.553Z,37.59
2019-06-08T11:15:19.290Z,37.10
2019-06-08T11:16:19.325Z,36.90
2019-06-08T11:17:19.301Z,35.60
2019-06-08T11:18:20.545Z,35.39
2019-06-08T11:19:20.378Z,33.91
2019-06-08T11:20:19.225Z,35.11
2019-06-08T11:21:21.966Z,35.69
2019-06-08T11:22:19.224Z,35.39
2019-06-08T11:23:19.174Z,35.99
2019-06-08T11:24:24.668Z,36.10
2019-06-08T11:25:20.337Z,36.10
2019-06-08T11:26:24.026Z,36.10
2019-06-08T11:27:20.175Z,36.10
2019-06-08T11:28:19.205Z,34.30
2019-06-08T11:29:19.118Z,35.69
2019-06-08T11:30:26.709Z,34.99
2019-06-08T11:31:20.320Z,35.39
2019-06-08T11:32:22.002Z,35.10
2019-06-08T11:33:19.710Z,34.80
2019-06-08T11:34:21.755Z,35.80
2019-06-08T11:35:19.127Z,35.68
2019-06-08T11:36:19.262Z,34.00
2019-06-08T11:37:21.072Z,34.80
2019-06-08T11:38:20.282Z,34.88
2019-06-08T11:39:19.030Z,35.58
2019-06-08T11:40:20.851Z,33.98
2019-06-08T11:41:22.626Z,33.68
2019-06-08T11:42:19.247Z,34.36
2019-06-08T11:43:18.961Z,33.84
2019-06-08T11:44:18.951Z,33.33
2019-06-08T11:45:18.985Z,33.35
2019-06-08T11:46:21.585Z,33.43
2019-06-08T11:47:18.927Z,34.13
2019-06-08T11:48:18.921Z,33.53
2019-06-08T11:49:19.021Z,33.04
2019-06-08T11:50:18.888Z,35.05
2019-06-08T11:51:18.904Z,35.14
2019-06-08T11:52:19.795Z,33.95
2019-06-08T11:53:18.849Z,35.33
2019-06-08T11:54:33.027Z,33.73
2019-06-08T11:55:19.830Z,33.33
2019-06-08T11:56:18.881Z,31.63
2019-06-08T11:57:21.791Z,32.75
2019-06-08T11:58:22.707Z,33.53
2019-06-08T11:59:18.810Z,32.33
2019-06-08T12:00:27.421Z,32.73
2019-06-08T12:01:19.822Z,32.93
2019-06-08T12:02:19.368Z,33.43
2019-06-08T12:03:18.762Z,32.71
2019-06-08T12:04:18.740Z,32.52
2019-06-08T12:05:18.717Z,32.71
2019-06-08T12:06:18.781Z,33.12
2019-06-08T12:07:18.690Z,33.31
2019-06-08T12:08:20.901Z,33.40
2019-06-08T12:09:19.094Z,33.38
2019-06-08T12:10:18.717Z,32.39
2019-06-08T12:11:20.861Z,31.89
2019-06-08T12:12:21.176Z,32.98
2019-06-08T12:13:18.663Z,32.78
2019-06-08T12:14:18.652Z,31.99
2019-06-08T12:15:21.194Z,32.77
2019-06-08T12:16:22.029Z,32.48
2019-06-08T12:17:22.215Z,31.77
2019-06-08T12:18:18.601Z,31.36
2019-06-08T12:19:20.943Z,30.86
2019-06-08T12:20:21.279Z,32.86
2019-06-08T12:21:19.570Z,31.54
2019-06-08T12:22:21.647Z,30.43
2019-06-08T12:23:18.531Z,29.72
2019-06-08T12:24:18.562Z,29.91
2019-06-08T12:25:18.525Z,30.02
2019-06-08T12:26:18.650Z,29.48
2019-06-08T12:27:29.106Z,29.64
2019-06-08T12:28:19.517Z,27.94
2019-06-08T12:29:19.028Z,28.52
2019-06-08T12:30:25.655Z,28.58
2019-06-08T12:31:22.494Z,27.66
2019-06-08T12:32:18.542Z,25.86
2019-06-08T12:33:19.837Z,25.55
2019-06-08T12:34:18.668Z,26.31
2019-06-08T12:35:18.445Z,24.04
2019-06-08T12:36:20.576Z,24.62
2019-06-08T12:37:22.179Z,24.11
2019-06-08T12:38:19.024Z,24.12
2019-06-08T12:39:19.763Z,23.80
2019-06-08T12:40:20.450Z,23.50
2019-06-08T12:41:19.377Z,23.47
2019-06-08T12:42:23.258Z,22.09
2019-06-08T12:43:20.357Z,21.80
2019-06-08T12:44:20.365Z,22.52
2019-06-08T12:45:20.016Z,23.79
2019-06-08T12:46:20.921Z,23.41
2019-06-08T12:47:24.705Z,23.17
2019-06-08T12:48:23.500Z,24.50
2019-06-08T12:49:20.495Z,23.73
2019-06-08T12:50:18.266Z,25.33
2019-06-08T12:51:19.920Z,24.92
2019-06-08T12:52:21.975Z,23.81
2019-06-08T12:53:28.320Z,23.59
2019-06-08T12:54:19.396Z,22.67
2019-06-08T12:55:23.179Z,22.08
2019-06-08T12:56:23.806Z,23.75